Time;durP1;ratioP1;P1;durP2;ratioP2;P2;SDS_P1;SDS_P2;PMS_P1;PMS_P2;Temp;Humidity;BMP_temperature;BMP_pressure;BME280_temperature;BME280_humidity;BME280_pressure;Samples;Min_cycle;Max_cycle;Signal;HPM_P1;HPM_P2
2022/06/18 00:00:23;;;;;;;1.58;1.48;;;15.70;99.90;;;;;;5162270;28;20604;-60
2022/06/18 00:02:55;;;;;;;2.53;1.08;;;15.70;99.90;;;;;;5194755;28;20029;-61
2022/06/18 00:05:27;;;;;;;1.67;1.20;;;15.70;99.90;;;;;;5186752;28;20236;-61
2022/06/18 00:08:11;;;;;;;1.65;1.35;;;15.70;99.90;;;;;;5186472;28;20258;-61
2022/06/18 00:10:46;;;;;;;1.40;1.30;;;15.70;99.90;;;;;;5165133;28;20052;-61
2022/06/18 00:13:42;;;;;;;1.27;1.17;;;15.60;99.90;;;;;;5180108;28;20036;-61
2022/06/18 00:16:21;;;;;;;1.77;1.67;;;15.70;99.90;;;;;;5178527;28;20052;-60
2022/06/18 00:18:55;;;;;;;1.67;1.58;;;15.60;99.90;;;;;;5195292;28;20038;-61
2022/06/18 00:21:27;;;;;;;2.83;1.80;;;15.50;99.90;;;;;;5179179;28;20040;-60
2022/06/18 00:24:00;;;;;;;1.60;1.50;;;15.30;99.90;;;;;;5196061;28;20034;-61
2022/06/18 00:26:37;;;;;;;5.47;1.73;;;15.20;99.90;;;;;;5196232;28;20029;-60
2022/06/18 00:29:18;;;;;;;1.50;1.40;;;15.30;99.90;;;;;;5193248;28;20072;-60
2022/06/18 00:31:51;;;;;;;1.10;1.10;;;15.30;99.90;;;;;;5172327;28;20042;-58
2022/06/18 00:34:22;;;;;;;1.55;1.40;;;15.40;99.90;;;;;;5193903;28;20026;-60
2022/06/18 00:36:55;;;;;;;1.83;1.52;;;15.50;99.90;;;;;;5177829;28;20034;-60
2022/06/18 00:39:28;;;;;;;1.70;1.60;;;15.60;99.90;;;;;;5183802;28;20042;-59
2022/06/18 00:42:13;;;;;;;1.60;1.50;;;15.70;99.90;;;;;;5176302;28;20044;-61
2022/06/18 00:44:51;;;;;;;;;;;15.70;99.90;;;;;;5181258;28;20277;-62
2022/06/18 00:47:41;;;;;;;1.30;1.20;;;15.70;99.90;;;;;;5195473;28;19976;-60
2022/06/18 00:50:40;;;;;;;3.42;1.70;;;15.70;99.90;;;;;;5196113;28;20033;-61
2022/06/18 00:53:15;;;;;;;1.80;1.70;;;15.60;99.90;;;;;;5193204;28;20836;-61
2022/06/18 00:56:02;;;;;;;1.35;1.25;;;15.50;99.90;;;;;;5193738;28;20207;-60
2022/06/18 00:58:50;;;;;;;1.63;1.52;;;15.50;99.90;;;;;;5177353;28;20042;-60
2022/06/18 01:01:36;;;;;;;1.38;1.27;;;15.40;99.90;;;;;;5180677;28;20215;-60
2022/06/18 01:04:32;;;;;;;1.42;1.33;;;15.30;99.90;;;;;;5194959;28;20048;-59
2022/06/18 01:07:26;;;;;;;2.03;1.88;;;15.10;99.90;;;;;;5154383;28;20258;-61
2022/06/18 01:09:59;;;;;;;1.50;1.38;;;15.00;99.90;;;;;;5154824;28;20042;-58
2022/06/18 01:12:33;;;;;;;1.52;1.42;;;14.90;99.90;;;;;;5181230;28;20029;-61
2022/06/18 01:15:12;;;;;;;1.45;1.35;;;14.90;99.90;;;;;;5199257;28;20045;-59
2022/06/18 01:17:48;;;;;;;2.50;1.83;;;14.80;99.90;;;;;;5211703;28;20029;-59
2022/06/18 01:20:23;;;;;;;1.58;1.48;;;14.80;99.90;;;;;;5215961;28;20332;-59
2022/06/18 01:23:13;;;;;;;;;;;14.70;99.90;;;;;;5208808;28;20025;-59
2022/06/18 01:25:48;;;;;;;1.73;1.63;;;14.80;99.90;;;;;;5178140;28;19924;-61
2022/06/18 01:28:24;;;;;;;2.58;1.67;;;14.90;99.90;;;;;;5194838;28;20056;-59
2022/06/18 01:31:01;;;;;;;2.00;1.67;;;14.90;99.90;;;;;;5179943;28;20048;-58
2022/06/18 01:33:35;;;;;;;2.17;1.75;;;14.80;99.90;;;;;;5175961;28;20440;-60
2022/06/18 01:36:11;;;;;;;;;;;14.60;99.90;;;;;;5176465;28;20252;-60
2022/06/18 01:38:45;;;;;;;2.13;1.70;;;14.40;99.90;;;;;;5195034;28;19914;-59
2022/06/18 01:41:50;;;;;;;2.30;1.57;;;14.40;99.90;;;;;;5179757;28;20034;-59
2022/06/18 01:44:27;;;;;;;2.55;2.13;;;14.40;99.90;;;;;;5180987;28;20207;-60
2022/06/18 01:47:08;;;;;;;1.85;1.63;;;14.50;99.90;;;;;;5196722;28;20044;-60
2022/06/18 01:50:35;;;;;;;12.20;2.45;;;14.60;99.90;;;;;;5196641;28;20246;-59
2022/06/18 01:53:10;;;;;;;1.55;1.45;;;14.70;99.90;;;;;;5165637;28;20234;-60
2022/06/18 01:56:17;;;;;;;1.63;1.48;;;14.70;99.90;;;;;;5150561;28;20377;-60
2022/06/18 01:58:57;;;;;;;1.52;1.42;;;14.70;99.90;;;;;;5162516;28;20041;-59
2022/06/18 02:01:38;;;;;;;1.10;1.08;;;14.70;99.90;;;;;;5142992;28;20038;-59
2022/06/18 02:04:14;;;;;;;1.65;1.30;;;14.70;99.90;;;;;;5176516;28;20025;-58
2022/06/18 02:06:52;;;;;;;3.22;1.70;;;14.70;99.90;;;;;;5116586;28;20097;-58
2022/06/18 02:09:55;;;;;;;1.90;1.80;;;14.70;99.90;;;;;;5126356;28;20038;-60
2022/06/18 02:12:38;;;;;;;1.63;1.52;;;14.70;99.90;;;;;;5155722;28;20493;-62
2022/06/18 02:15:41;;;;;;;2.10;1.60;;;14.60;99.90;;;;;;5148562;28;20038;-61
2022/06/18 02:18:19;;;;;;;1.70;1.60;;;14.40;99.90;;;;;;5160349;28;20042;-61
2022/06/18 02:20:58;;;;;;;1.65;1.50;;;14.20;99.90;;;;;;5176485;28;20087;-59
2022/06/18 02:23:34;;;;;;;1.73;1.63;;;14.00;99.90;;;;;;5162551;28;20068;-59
2022/06/18 02:26:07;;;;;;;1.77;1.48;;;13.90;99.90;;;;;;5191129;28;20231;-59
2022/06/18 02:28:43;;;;;;;1.70;1.60;;;13.70;99.90;;;;;;5192445;28;20054;-61
2022/06/18 02:31:23;;;;;;;3.30;1.70;;;13.60;99.90;;;;;;5194587;28;20040;-60
2022/06/18 02:34:10;;;;;;;2.28;2.00;;;13.50;99.90;;;;;;5200166;28;20030;-58
2022/06/18 02:36:45;;;;;;;1.80;1.70;;;13.50;99.90;;;;;;5198379;28;20226;-60
2022/06/18 02:40:12;;;;;;;2.55;1.42;;;13.50;99.90;;;;;;5199281;28;20046;-58
2022/06/18 02:42:49;;;;;;;1.95;1.85;;;13.50;99.90;;;;;;5175520;28;20046;-59
2022/06/18 02:45:27;;;;;;;2.35;1.98;;;13.50;99.90;;;;;;5181929;28;20372;-60
2022/06/18 02:48:03;;;;;;;1.95;1.77;;;13.50;99.90;;;;;;5182103;28;20048;-59
2022/06/18 02:50:42;;;;;;;1.75;1.55;;;13.50;99.90;;;;;;5180323;28;20034;-61
2022/06/18 02:53:16;;;;;;;1.98;1.63;;;13.50;99.90;;;;;;5165807;28;20038;-60
2022/06/18 02:55:52;;;;;;;1.55;1.45;;;13.60;99.90;;;;;;5181826;28;20036;-61
2022/06/18 02:58:35;;;;;;;2.33;1.90;;;13.70;99.90;;;;;;5198901;28;20030;-59
2022/06/18 03:01:17;;;;;;;2.10;1.90;;;13.80;99.90;;;;;;5195760;28;20033;-59
2022/06/18 03:03:57;;;;;;;1.42;1.33;;;13.90;99.90;;;;;;5181193;28;20029;-60
2022/06/18 03:06:34;;;;;;;1.83;1.60;;;13.90;99.90;;;;;;5172408;28;20050;-58
2022/06/18 03:09:10;;;;;;;1.88;1.73;;;13.90;99.90;;;;;;5195401;28;20032;-59
2022/06/18 03:14:31;;;;;;;1.90;1.38;;;13.90;99.90;;;;;;5182083;28;20302;-59
2022/06/18 03:17:06;;;;;;;1.52;1.42;;;14.00;99.90;;;;;;5198346;28;20021;-60
2022/06/18 03:19:46;;;;;;;2.45;2.00;;;14.00;99.90;;;;;;5182213;28;20030;-59
2022/06/18 03:22:22;;;;;;;2.00;1.65;;;14.10;99.90;;;;;;5168579;28;20229;-61
2022/06/18 03:24:53;;;;;;;1.90;1.70;;;14.20;99.90;;;;;;5182594;28;20305;-60
2022/06/18 03:27:25;;;;;;;1.35;1.25;;;14.30;99.90;;;;;;5198856;28;20044;-58
2022/06/18 03:30:05;;;;;;;2.13;1.88;;;14.40;99.90;;;;;;5198802;28;20033;-58
2022/06/18 03:32:40;;;;;;;1.80;1.70;;;14.60;99.90;;;;;;5195508;28;20330;-58
2022/06/18 03:35:12;;;;;;;1.98;1.60;;;14.70;99.90;;;;;;5196478;28;20287;-61
2022/06/18 03:37:46;;;;;;;1.52;1.42;;;14.80;99.90;;;;;;5178187;28;20038;-61
2022/06/18 03:40:21;;;;;;;2.20;1.65;;;15.00;99.90;;;;;;5180302;28;20050;-61
2022/06/18 03:42:57;;;;;;;;;;;15.10;99.90;;;;;;5179658;28;20323;-62
2022/06/18 03:45:41;;;;;;;1.08;0.90;;;15.40;99.90;;;;;;5197812;28;19913;-60
2022/06/18 03:48:23;;;;;;;2.63;1.40;;;15.50;99.90;;;;;;5183864;28;20050;-61
2022/06/18 03:50:55;;;;;;;1.38;1.27;;;15.70;99.90;;;;;;5181653;28;20206;-60
2022/06/18 03:53:27;;;;;;;1.42;1.33;;;15.90;99.90;;;;;;5180099;28;20211;-62
2022/06/18 03:56:01;;;;;;;1.40;1.30;;;16.10;99.90;;;;;;5175848;28;20049;-61
2022/06/18 03:58:33;;;;;;;3.03;1.40;;;16.30;99.90;;;;;;5162761;28;20308;-61
2022/06/18 04:01:05;;;;;;;1.27;1.17;;;16.30;99.90;;;;;;5182235;28;20038;-61
2022/06/18 04:03:40;;;;;;;1.52;1.42;;;16.50;99.90;;;;;;5195002;28;20048;-60
2022/06/18 04:06:14;;;;;;;;;;;16.60;99.90;;;;;;5190110;28;20254;-60
2022/06/18 04:08:51;;;;;;;1.95;1.20;;;16.80;99.90;;;;;;5195468;28;19921;-61
2022/06/18 04:11:24;;;;;;;2.30;1.35;;;17.00;99.90;;;;;;5177304;28;20284;-65
2022/06/18 04:13:59;;;;;;;3.05;1.70;;;17.10;99.90;;;;;;5179657;28;20036;-60
2022/06/18 04:16:34;;;;;;;1.10;1.10;;;17.30;99.90;;;;;;5195662;28;20042;-60
2022/06/18 04:19:10;;;;;;;1.52;1.40;;;17.60;99.90;;;;;;5196087;28;20041;-60
2022/06/18 04:21:46;;;;;;;1.30;1.20;;;17.90;99.90;;;;;;5182313;28;20022;-61
2022/06/18 04:24:20;;;;;;;1.15;1.05;;;17.90;99.90;;;;;;5197024;28;20046;-62
2022/06/18 04:26:58;;;;;;;;;;;18.10;99.90;;;;;;5180769;28;20041;-62
2022/06/18 04:29:33;;;;;;;1.67;1.10;;;18.30;99.90;;;;;;5195887;28;19916;-60
2022/06/18 04:32:07;;;;;;;1.52;1.42;;;18.50;99.90;;;;;;5196383;28;20040;-61
2022/06/18 04:34:39;;;;;;;;;;;18.80;99.90;;;;;;5179077;28;20029;-60
2022/06/18 04:37:12;;;;;;;1.23;1.13;;;19.10;99.90;;;;;;5193019;28;20091;-61
2022/06/18 04:39:44;;;;;;;2.00;1.30;;;19.30;99.90;;;;;;5189694;28;20040;-61
2022/06/18 04:42:15;;;;;;;2.55;1.10;;;19.40;99.90;;;;;;5177907;28;20042;-61
2022/06/18 04:44:49;;;;;;;1.38;1.27;;;19.50;99.90;;;;;;5178792;28;20683;-60
2022/06/18 04:47:25;;;;;;;1.75;1.10;;;19.50;99.90;;;;;;5176893;28;20037;-62
2022/06/18 04:49:59;;;;;;;1.10;1.00;;;19.50;99.90;;;;;;5176748;28;20033;-61
2022/06/18 04:52:33;;;;;;;1.80;1.08;;;19.60;99.90;;;;;;5194173;28;20030;-61
2022/06/18 04:55:13;;;;;;;1.15;1.00;;;19.60;99.90;;;;;;5192807;28;20046;-62
2022/06/18 04:57:47;;;;;;;1.58;1.45;;;19.60;99.90;;;;;;5194120;28;20029;-61
2022/06/18 05:00:19;;;;;;;1.38;1.20;;;19.80;99.90;;;;;;5193123;28;20364;-61
2022/06/18 05:02:51;;;;;;;1.40;1.20;;;19.90;99.90;;;;;;5167400;28;20033;-62
2022/06/18 05:05:26;;;;;;;1.30;1.20;;;19.90;99.90;;;;;;5170127;28;20053;-62
2022/06/18 05:08:06;;;;;;;1.20;1.10;;;19.90;99.90;;;;;;5174631;28;20326;-62
2022/06/18 05:10:37;;;;;;;1.70;1.30;;;19.90;99.90;;;;;;5138139;28;20034;-61
2022/06/18 05:13:12;;;;;;;1.83;1.48;;;20.10;99.90;;;;;;5158579;28;20036;-62
2022/06/18 05:15:47;;;;;;;1.20;1.10;;;20.20;99.90;;;;;;5189927;28;20026;-61
2022/06/18 05:18:31;;;;;;;2.05;1.60;;;20.50;99.90;;;;;;5173292;28;20040;-61
2022/06/18 05:21:06;;;;;;;2.17;1.40;;;20.60;99.90;;;;;;5191482;28;20341;-62
2022/06/18 05:23:43;;;;;;;1.20;1.10;;;20.80;99.90;;;;;;5171221;28;20060;-63
2022/06/18 05:26:28;;;;;;;1.27;1.00;;;21.00;99.90;;;;;;5171521;28;20036;-60
2022/06/18 05:28:59;;;;;;;5.57;1.35;;;21.20;99.90;;;;;;5157649;28;20207;-60
2022/06/18 05:31:36;;;;;;;1.42;1.30;;;21.40;99.90;;;;;;5160642;28;20026;-61
2022/06/18 05:34:10;;;;;;;1.38;1.27;;;21.60;99.90;;;;;;5188864;28;20037;-62
2022/06/18 05:36:44;;;;;;;4.00;1.20;;;21.80;99.90;;;;;;5177631;28;20038;-60
2022/06/18 05:39:18;;;;;;;;;;;22.20;99.90;;;;;;5176981;28;20044;-62
2022/06/18 05:41:52;;;;;;;1.38;1.27;;;22.50;99.90;;;;;;5173111;28;19919;-63
2022/06/18 05:44:24;;;;;;;1.65;1.20;;;22.80;99.90;;;;;;5187568;28;20030;-62
2022/06/18 05:47:00;;;;;;;1.75;1.45;;;23.00;99.90;;;;;;5170180;28;20248;-61
2022/06/18 05:49:34;;;;;;;1.40;1.23;;;23.10;99.90;;;;;;5190998;28;20021;-59
2022/06/18 05:52:09;;;;;;;1.48;1.30;;;23.30;99.90;;;;;;5176136;28;20123;-62
2022/06/18 05:54:41;;;;;;;1.05;0.95;;;23.30;99.90;;;;;;5190821;28;20048;-60
2022/06/18 05:57:19;;;;;;;1.52;1.00;;;23.50;99.90;;;;;;5172396;28;20042;-61
2022/06/18 05:59:54;;;;;;;1.67;1.15;;;23.80;99.90;;;;;;5167342;28;20053;-62
2022/06/18 06:02:28;;;;;;;1.15;1.05;;;24.20;99.90;;;;;;5184642;28;20123;-63
2022/06/18 06:04:59;;;;;;;1.98;1.10;;;24.20;99.90;;;;;;5164932;28;20347;-61
2022/06/18 06:07:34;;;;;;;1.20;1.10;;;24.70;99.90;;;;;;5183582;28;20248;-60
2022/06/18 06:13:18;;;;;;;3.38;2.25;;;25.60;99.90;;;;;;5180094;28;20030;-62
2022/06/18 06:15:53;;;;;;;1.15;1.05;;;26.60;99.90;;;;;;5177765;28;20050;-62
2022/06/18 06:18:27;;;;;;;0.88;0.82;;;26.90;99.90;;;;;;5190531;28;20054;-61
2022/06/18 06:21:00;;;;;;;2.85;0.98;;;27.00;99.90;;;;;;5159293;28;20027;-62
2022/06/18 06:23:33;;;;;;;1.23;1.15;;;26.90;99.90;;;;;;5194159;28;20192;-62
2022/06/18 06:26:33;;;;;;;1.48;0.95;;;26.30;99.90;;;;;;5184282;28;20331;-61
2022/06/18 06:29:07;;;;;;;1.70;1.02;;;26.60;99.90;;;;;;5181373;28;20184;-63
2022/06/18 06:31:41;;;;;;;1.40;1.30;;;26.80;99.90;;;;;;5181893;28;20215;-60
2022/06/18 06:34:15;;;;;;;2.65;1.13;;;26.10;99.90;;;;;;5196723;28;20026;-62
2022/06/18 06:36:47;;;;;;;1.40;1.30;;;26.30;99.90;;;;;;5182422;28;20033;-62
2022/06/18 06:39:18;;;;;;;1.98;1.00;;;26.60;99.90;;;;;;5181382;28;20037;-63
2022/06/18 06:41:51;;;;;;;1.15;0.93;;;27.00;99.90;;;;;;5154414;28;20029;-61
2022/06/18 06:44:23;;;;;;;1.83;1.00;;;26.60;99.90;;;;;;5181454;28;20026;-61
2022/06/18 06:46:59;;;;;;;1.33;1.23;;;26.60;99.90;;;;;;5181357;28;20285;-60
2022/06/18 06:49:33;;;;;;;4.05;1.10;;;26.10;99.90;;;;;;5198122;28;20534;-60
2022/06/18 06:52:05;;;;;;;1.52;1.10;;;25.40;99.90;;;;;;5197354;28;20074;-61
2022/06/18 06:54:37;;;;;;;1.50;1.08;;;25.40;99.90;;;;;;5180331;28;20038;-62
2022/06/18 06:57:22;;;;;;;1.25;1.15;;;24.80;99.90;;;;;;5197011;28;20416;-61
2022/06/18 06:59:57;;;;;;;1.05;0.95;;;24.30;99.90;;;;;;5179606;28;20038;-64
2022/06/18 07:02:34;;;;;;;1.38;1.23;;;24.40;99.90;;;;;;5179322;28;20218;-62
2022/06/18 07:05:16;;;;;;;1.25;0.80;;;25.50;99.90;;;;;;5162691;28;20053;-61
2022/06/18 07:07:47;;;;;;;1.17;0.90;;;25.30;99.90;;;;;;5189255;28;20038;-61
2022/06/18 07:10:21;;;;;;;1.15;0.98;;;25.80;99.90;;;;;;5196001;28;20239;-62
2022/06/18 07:12:53;;;;;;;;;;;26.80;99.90;;;;;;5182524;28;20043;-63
2022/06/18 07:15:29;;;;;;;0.82;0.82;;;27.80;99.90;;;;;;5180017;28;19909;-62
2022/06/18 07:18:05;;;;;;;0.75;0.70;;;28.20;99.90;;;;;;5193513;28;20354;-62
2022/06/18 07:20:39;;;;;;;0.70;0.70;;;27.10;99.90;;;;;;5177935;28;20040;-63
2022/06/18 07:23:13;;;;;;;1.52;1.00;;;26.60;99.90;;;;;;5193000;28;20044;-62
2022/06/18 07:25:44;;;;;;;;;;;26.80;99.90;;;;;;5194191;28;20025;-61
2022/06/18 07:28:18;;;;;;;0.85;0.82;;;26.60;99.90;;;;;;5179022;28;19913;-61
2022/06/18 07:30:50;;;;;;;0.77;0.77;;;26.60;99.90;;;;;;5179260;28;20025;-61
2022/06/18 07:33:26;;;;;;;0.80;0.80;;;26.30;99.90;;;;;;5179445;28;20034;-61
2022/06/18 07:35:58;;;;;;;1.00;0.90;;;27.00;99.90;;;;;;5163732;28;20038;-62
2022/06/18 07:38:29;;;;;;;1.00;0.90;;;27.40;99.90;;;;;;5196853;28;20021;-62
2022/06/18 07:41:03;;;;;;;0.90;0.85;;;28.10;99.90;;;;;;5193196;28;20323;-61
2022/06/18 07:43:59;;;;;;;0.80;0.80;;;28.50;99.90;;;;;;5204300;28;20332;-62
2022/06/18 07:46:30;;;;;;;1.02;0.85;;;28.90;99.90;;;;;;5199767;28;20335;-61
2022/06/18 07:49:05;;;;;;;0.65;0.65;;;28.70;99.90;;;;;;5189004;28;20097;-60
2022/06/18 07:51:47;;;;;;;1.02;0.80;;;28.10;99.90;;;;;;5165746;28;20038;-61
2022/06/18 07:54:26;;;;;;;1.25;0.85;;;28.30;99.90;;;;;;5183626;28;20028;-60
2022/06/18 07:57:01;;;;;;;1.15;0.95;;;28.40;99.90;;;;;;5194875;28;20038;-63
2022/06/18 07:59:39;;;;;;;0.70;0.70;;;27.90;99.90;;;;;;5193954;28;20040;-63
2022/06/18 08:02:15;;;;;;;0.68;0.68;;;28.00;99.90;;;;;;5188768;28;20056;-62
2022/06/18 08:04:50;;;;;;;0.77;0.77;;;28.30;99.90;;;;;;5184792;28;20306;-61
2022/06/18 08:07:21;;;;;;;;;;;27.40;99.90;;;;;;5162845;28;20026;-60
2022/06/18 08:09:58;;;;;;;0.70;0.70;;;27.30;99.90;;;;;;5196362;28;19936;-61
2022/06/18 08:12:33;;;;;;;0.98;0.80;;;27.80;99.90;;;;;;5176847;28;20041;-63
2022/06/18 08:15:09;;;;;;;0.70;0.70;;;28.50;99.90;;;;;;5194586;28;20304;-61
2022/06/18 08:17:44;;;;;;;0.70;0.70;;;28.80;99.90;;;;;;5196010;28;20044;-60
2022/06/18 08:20:19;;;;;;;0.93;0.82;;;29.20;99.90;;;;;;5178732;28;20254;-60
2022/06/18 08:22:55;;;;;;;0.70;0.70;;;29.00;99.90;;;;;;5184988;28;20044;-63
2022/06/18 08:25:30;;;;;;;1.05;0.98;;;29.50;99.90;;;;;;5194729;28;20038;-61
2022/06/18 08:28:05;;;;;;;0.70;0.70;;;29.20;99.90;;;;;;5180811;28;20033;-62
2022/06/18 08:30:37;;;;;;;0.90;0.90;;;29.50;99.90;;;;;;5199650;28;20038;-62
2022/06/18 08:33:09;;;;;;;0.75;0.75;;;29.60;99.90;;;;;;5191876;28;20288;-62
2022/06/18 08:35:41;;;;;;;0.88;0.70;;;29.90;99.90;;;;;;5178855;28;20041;-62
2022/06/18 08:38:13;;;;;;;1.50;0.90;;;30.20;99.90;;;;;;5181960;28;20033;-62
2022/06/18 08:41:28;;;;;;;1.23;0.93;;;30.60;99.90;;;;;;5200787;28;20210;-62
2022/06/18 08:44:08;;;;;;;3.30;0.90;;;30.30;99.90;;;;;;5214237;28;20228;-60
2022/06/18 08:47:25;;;;;;;1.20;0.90;;;30.30;99.90;;;;;;5213858;28;20044;-61
2022/06/18 08:50:25;;;;;;;0.80;0.80;;;30.00;99.90;;;;;;5213743;28;20036;-60
2022/06/18 08:53:24;;;;;;;0.90;0.90;;;30.60;99.90;;;;;;5213786;28;20044;-60
2022/06/18 08:56:08;;;;;;;1.00;1.00;;;30.90;99.90;;;;;;5199611;28;20048;-60
2022/06/18 08:58:45;;;;;;;1.13;1.02;;;30.10;99.90;;;;;;5213132;28;20313;-60
2022/06/18 09:01:32;;;;;;;1.80;1.00;;;29.60;99.90;;;;;;5197841;28;20077;-62
2022/06/18 09:04:04;;;;;;;1.05;0.90;;;30.00;99.90;;;;;;5197458;28;20026;-60
2022/06/18 09:07:03;;;;;;;1.95;0.90;;;29.90;99.90;;;;;;5199621;28;20046;-63
2022/06/18 09:10:14;;;;;;;1.50;1.40;;;29.90;99.90;;;;;;5193502;28;20065;-63
2022/06/18 09:13:30;;;;;;;0.90;0.90;;;29.90;99.90;;;;;;5178565;28;20036;-61
2022/06/18 09:16:08;;;;;;;0.80;0.80;;;30.00;99.90;;;;;;5206757;28;20041;-61
2022/06/18 09:18:53;;;;;;;0.82;0.82;;;30.20;99.90;;;;;;5210625;28;20030;-60
2022/06/18 09:21:35;;;;;;;0.90;0.90;;;30.60;99.90;;;;;;5194476;28;20029;-60
2022/06/18 09:24:12;;;;;;;1.13;1.02;;;30.70;99.90;;;;;;5183932;28;20214;-62
2022/06/18 09:26:48;;;;;;;1.08;0.98;;;31.40;99.90;;;;;;5195177;28;20026;-61
2022/06/18 09:29:33;;;;;;;1.17;1.08;;;31.60;99.90;;;;;;5193756;28;20021;-61
2022/06/18 09:32:19;;;;;;;1.02;0.95;;;31.70;99.90;;;;;;5194862;28;20227;-62
2022/06/18 09:35:15;;;;;;;1.40;1.10;;;32.00;99.90;;;;;;5178468;28;20041;-61
2022/06/18 09:38:07;;;;;;;0.95;0.90;;;31.00;99.90;;;;;;5190212;28;20109;-64
2022/06/18 09:40:48;;;;;;;0.73;0.73;;;31.40;99.90;;;;;;5176147;28;20063;-60
2022/06/18 09:43:42;;;;;;;2.15;1.45;;;31.60;99.90;;;;;;5194354;28;20060;-62
2022/06/18 09:46:30;;;;;;;2.55;1.30;;;32.10;99.90;;;;;;5179155;28;20349;-61
2022/06/18 09:49:04;;;;;;;0.88;0.88;;;31.30;99.90;;;;;;5195360;28;20044;-64
2022/06/18 09:52:14;;;;;;;1.38;1.00;;;32.00;99.90;;;;;;5184825;28;20247;-61
2022/06/18 09:54:54;;;;;;;1.20;1.10;;;32.80;99.90;;;;;;5179674;28;20042;-61
2022/06/18 09:57:32;;;;;;;1.63;0.98;;;32.70;99.90;;;;;;5174764;28;20026;-62
2022/06/18 10:00:16;;;;;;;1.20;1.10;;;32.30;99.90;;;;;;5158656;28;20251;-62
2022/06/18 10:09:13;;;;;;;1.05;1.00;;;32.60;99.90;;;;;;5159741;28;20247;-60
2022/06/18 10:11:48;;;;;;;1.25;1.17;;;30.70;99.90;;;;;;5175660;28;20489;-63
2022/06/18 10:14:30;;;;;;;1.20;1.10;;;30.60;99.90;;;;;;5157722;28;20037;-62
2022/06/18 10:17:34;;;;;;;1.15;1.05;;;30.70;99.90;;;;;;5172085;28;20044;-61
2022/06/18 10:20:37;;;;;;;2.53;1.20;;;30.20;99.90;;;;;;5159712;28;20199;-62
2022/06/18 10:23:54;;;;;;;1.02;1.02;;;31.90;99.90;;;;;;5160658;28;20108;-64
2022/06/18 10:26:55;;;;;;;1.27;1.17;;;32.10;99.90;;;;;;5155472;28;20254;-62
2022/06/18 10:29:55;;;;;;;1.10;1.00;;;32.80;99.90;;;;;;5154627;28;20030;-64
2022/06/18 10:32:57;;;;;;;1.65;1.20;;;33.00;99.90;;;;;;5139380;28;20052;-61
2022/06/18 10:36:11;;;;;;;1.23;1.20;;;34.00;99.90;;;;;;5171398;28;20281;-63
2022/06/18 10:39:12;;;;;;;1.30;1.05;;;36.10;99.90;;;;;;5120504;28;20068;-62
2022/06/18 10:42:09;;;;;;;1.58;1.48;;;37.60;99.90;;;;;;5144227;28;20030;-63
2022/06/18 10:45:17;;;;;;;1.40;1.30;;;37.70;99.90;;;;;;5159677;28;20049;-62
2022/06/18 10:47:53;;;;;;;1.10;1.10;;;37.70;99.90;;;;;;5148056;28;20052;-64
2022/06/18 10:50:25;;;;;;;1.27;1.17;;;37.60;99.90;;;;;;5157482;28;20048;-64
2022/06/18 10:53:04;;;;;;;1.38;1.27;;;38.20;99.90;;;;;;5160718;28;20116;-62
2022/06/18 10:55:38;;;;;;;2.20;1.08;;;39.40;99.90;;;;;;5164360;28;20300;-62
2022/06/18 10:58:15;;;;;;;1.42;1.33;;;39.40;99.90;;;;;;5177740;28;20052;-63
2022/06/18 11:01:14;;;;;;;1.67;1.15;;;39.60;99.50;;;;;;5162197;28;20321;-61
2022/06/18 11:04:08;;;;;;;1.20;1.20;;;40.20;98.20;;;;;;5159736;28;20046;-63
2022/06/18 11:06:52;;;;;;;1.52;1.30;;;39.90;99.10;;;;;;5171130;28;20050;-61
2022/06/18 11:09:55;;;;;;;1.15;1.05;;;40.00;96.60;;;;;;5180912;28;20026;-62
2022/06/18 11:12:40;;;;;;;1.63;1.30;;;39.20;97.70;;;;;;5180738;28;20025;-66
2022/06/18 11:15:44;;;;;;;1.30;1.20;;;39.60;98.90;;;;;;5181723;28;20052;-60
2022/06/18 11:18:25;;;;;;;1.77;1.67;;;40.70;97.60;;;;;;5178726;28;20033;-63
2022/06/18 11:21:06;;;;;;;1.48;1.38;;;40.90;96.50;;;;;;5164867;28;20042;-64
2022/06/18 11:23:46;;;;;;;1.52;1.42;;;42.40;95.80;;;;;;5169020;28;20042;-63
2022/06/18 11:26:26;;;;;;;1.58;1.48;;;42.80;93.90;;;;;;5181503;28;20347;-63
2022/06/18 11:29:13;;;;;;;1.00;1.00;;;42.40;93.30;;;;;;5165945;28;20046;-63
2022/06/18 11:31:49;;;;;;;1.58;1.48;;;41.20;91.90;;;;;;5163460;28;20042;-64
2022/06/18 11:34:28;;;;;;;1.55;1.40;;;40.60;94.10;;;;;;5159659;28;20362;-65
2022/06/18 11:37:12;;;;;;;1.40;1.30;;;40.20;93.90;;;;;;5178301;28;20377;-65
2022/06/18 11:40:07;;;;;;;1.65;1.50;;;41.00;93.10;;;;;;5163462;28;20164;-63
2022/06/18 11:42:56;;;;;;;1.50;1.40;;;42.40;92.80;;;;;;5178174;28;20056;-63
2022/06/18 11:45:46;;;;;;;1.45;1.35;;;41.20;92.80;;;;;;5172149;28;20041;-63
2022/06/18 11:48:38;;;;;;;1.48;1.38;;;42.10;92.90;;;;;;5172949;28;20037;-63
2022/06/18 11:51:27;;;;;;;1.52;1.30;;;40.30;90.50;;;;;;5184304;28;20226;-63
2022/06/18 11:54:07;;;;;;;1.67;1.58;;;38.70;91.30;;;;;;5167488;28;20038;-62
2022/06/18 11:57:21;;;;;;;1.35;1.25;;;39.90;91.50;;;;;;5196528;28;20040;-62
2022/06/18 12:00:20;;;;;;;;;;;42.40;90.10;;;;;;5198932;28;20033;-61
2022/06/18 12:03:04;;;;;;;1.30;1.20;;;43.40;90.20;;;;;;5196573;28;20240;-62
2022/06/18 12:06:04;;;;;;;1.63;1.52;;;44.40;90.50;;;;;;5206852;28;20054;-62
2022/06/18 12:08:39;;;;;;;2.75;1.30;;;45.80;87.70;;;;;;5176258;28;20055;-63
2022/06/18 12:11:39;;;;;;;1.20;1.20;;;45.60;83.20;;;;;;5216970;28;20120;-61
2022/06/18 12:14:29;;;;;;;1.40;1.30;;;43.30;84.80;;;;;;5212170;28;20338;-61
2022/06/18 12:17:24;;;;;;;2.13;1.35;;;43.90;83.80;;;;;;5197885;28;20274;-60
2022/06/18 12:20:26;;;;;;;1.48;1.40;;;44.00;85.40;;;;;;5199941;28;20033;-62
2022/06/18 12:23:21;;;;;;;1.25;1.20;;;41.00;85.80;;;;;;5206060;28;20044;-61
2022/06/18 12:26:39;;;;;;;1.40;1.30;;;42.60;86.80;;;;;;5166724;28;20048;-64
2022/06/18 12:29:41;;;;;;;1.42;1.33;;;44.20;84.30;;;;;;5139056;28;20041;-61
2022/06/18 12:32:23;;;;;;;1.58;1.13;;;43.00;85.30;;;;;;5135679;28;20223;-64
2022/06/18 12:35:04;;;;;;;1.42;1.33;;;42.20;88.00;;;;;;5122514;28;20033;-63
2022/06/18 12:38:21;;;;;;;2.38;1.40;;;41.90;87.70;;;;;;5120288;28;20250;-61
2022/06/18 12:41:38;;;;;;;1.60;1.35;;;40.90;88.80;;;;;;5140016;28;20056;-66
2022/06/18 12:44:34;;;;;;;1.30;1.20;;;40.90;88.40;;;;;;5125143;28;20047;-62
2022/06/18 12:47:46;;;;;;;1.40;1.30;;;41.30;87.80;;;;;;5113824;28;20141;-63
2022/06/18 12:50:20;;;;;;;1.80;1.30;;;40.50;89.40;;;;;;5138820;28;20460;-64
2022/06/18 12:53:02;;;;;;;1.27;1.23;;;40.00;88.80;;;;;;5122833;28;20073;-61
2022/06/18 12:56:07;;;;;;;1.30;1.20;;;40.40;89.00;;;;;;5106127;28;20073;-63
2022/06/18 12:59:33;;;;;;;1.35;1.27;;;41.10;88.80;;;;;;5137585;28;20046;-63
2022/06/18 13:02:49;;;;;;;1.58;1.48;;;41.30;88.10;;;;;;5117760;28;20366;-62
2022/06/18 13:05:41;;;;;;;1.52;1.40;;;41.20;87.90;;;;;;5127470;28;20053;-63
2022/06/18 13:08:36;;;;;;;1.40;1.30;;;42.10;87.70;;;;;;5193561;28;20036;-63
2022/06/18 13:11:38;;;;;;;1.25;1.17;;;43.30;86.20;;;;;;5197624;28;20037;-62
2022/06/18 13:14:35;;;;;;;1.48;1.38;;;42.30;86.60;;;;;;5164829;28;20040;-62
2022/06/18 13:17:34;;;;;;;1.40;1.13;;;42.30;86.70;;;;;;5192512;28;20036;-61
2022/06/18 13:20:40;;;;;;;1.35;1.25;;;40.70;86.90;;;;;;5163392;28;20055;-62
2022/06/18 13:29:40;;;;;;;1.50;1.40;;;42.90;85.20;;;;;;5190580;28;20018;-63
2022/06/18 13:32:34;;;;;;;1.30;1.20;;;42.50;84.10;;;;;;5191395;28;20360;-62
2022/06/18 13:35:48;;;;;;;2.08;1.45;;;43.20;85.30;;;;;;5217808;28;20029;-62
2022/06/18 13:38:59;;;;;;;1.52;1.42;;;42.00;86.00;;;;;;5230953;28;20041;-63
2022/06/18 13:41:50;;;;;;;1.50;1.40;;;42.40;85.60;;;;;;5234278;28;20210;-61
2022/06/18 13:44:40;;;;;;;1.17;1.15;;;41.70;85.70;;;;;;5233350;28;20029;-61
2022/06/18 13:47:32;;;;;;;1.00;1.00;;;42.20;84.70;;;;;;5233995;28;20059;-62
2022/06/18 13:50:12;;;;;;;1.60;1.50;;;42.40;84.30;;;;;;5233119;28;20214;-62
2022/06/18 13:52:49;;;;;;;1.27;1.17;;;43.30;84.60;;;;;;5233583;28;20029;-61
2022/06/18 13:55:36;;;;;;;1.40;1.30;;;43.10;83.20;;;;;;5233389;28;20041;-62
2022/06/18 13:58:27;;;;;;;1.42;1.33;;;43.00;84.80;;;;;;5229419;28;20034;-63
2022/06/18 14:01:15;;;;;;;1.27;1.15;;;42.80;84.10;;;;;;5196378;28;20234;-63
2022/06/18 14:04:04;;;;;;;1.52;1.42;;;42.90;84.80;;;;;;5192460;28;20030;-63
2022/06/18 14:06:48;;;;;;;1.70;1.60;;;42.20;84.50;;;;;;5184678;28;20064;-64
2022/06/18 14:09:24;;;;;;;1.67;1.52;;;43.00;85.00;;;;;;5173976;28;20048;-62
2022/06/18 14:12:05;;;;;;;1.38;1.27;;;42.20;83.80;;;;;;5190414;28;20038;-61
2022/06/18 14:14:43;;;;;;;1.60;1.40;;;40.00;87.10;;;;;;5192076;28;20050;-60
2022/06/18 14:17:18;;;;;;;1.45;1.38;;;40.70;86.50;;;;;;5193059;28;20041;-62
2022/06/18 14:20:11;;;;;;;1.25;1.20;;;41.90;85.40;;;;;;5179779;28;20318;-61
2022/06/18 14:22:55;;;;;;;1.95;1.77;;;42.10;84.80;;;;;;5203450;28;20399;-63
2022/06/18 14:25:28;;;;;;;1.35;1.25;;;42.40;84.50;;;;;;5194400;28;20060;-63
2022/06/18 14:27:59;;;;;;;1.48;1.38;;;42.70;82.90;;;;;;5180554;28;20025;-61